Airfield :
LOGIN :

Register | Disclaimer

   EN    FR    IT 

 










Legend :    VFR   Marginal VFR   IFR   Intensive IFR   Very Intensive IFR
Visi :
Ceiling :
>= 8 km
>= 3000ft
5 to 8 km
1000 to 3000 ft
1500m to 5 km
500 to 1000 ft
800 to 1500m
200 to 500 ft
< 800m
< 200 ft
Symbols :   Thunderstorms  Fog  Heavy snow  Heavy precipitations  Wind > 20 kt
SIGMETs :     Misc.  Thunderstorms  Icing  Turbulence  Mountain Waves  Volcanic Ashes






- Airport Elevation : 26 ft
- IATA code : GLA


EGPF - Glasgow

CURRENT METAR :
  • 011250Z AUTO VRB03KT 9999 SCT046 18/06 Q1013

EXPIRED METARs :
  • 011220Z AUTO 29005KT 210V350 9999 BKN045 18/07 Q1013
  • 011150Z AUTO VRB03KT 9999 BKN045 17/06 Q1013
  • 011120Z AUTO VRB03KT 9999 BKN044 17/06 Q1013
  • 011050Z AUTO 04004KT 350V090 9999 BKN045 16/06 Q1013

TAF TAF EGPF
Valid from the 01 at 12:00 until the 02 at 12:00 UTC


011058Z 0112/0212 04005KT 9999 SCT040
BECMG 0112/0115 28010KT
ATIS : +44 141 887 7449



MET'MAP, your aeronautical weather chart ! - Copyright ORBIFLY December 2007 - Disclaimer

ORBIFLY MET'MAP TEAM :

Programming & Development : Alexandra Zaïnal
Concept & original design : Baudouin d'Aumeries
Assistance for programming : Marc-Olivier Méhu
Technical & hardware support : Manuel Goepfert

Contact : metmap@orbifly.com




SOURCES & CREDITS :

   NOAA